sensor_id;sensor_type;location;lat;lon;timestamp;temperature;humidity
17387;DHT22;8811;52.398;9.728;2022-07-12T00:00:07;15.40;99.90
17387;DHT22;8811;52.398;9.728;2022-07-12T00:02:35;15.40;99.90
17387;DHT22;8811;52.398;9.728;2022-07-12T00:05:03;15.40;99.90
17387;DHT22;8811;52.398;9.728;2022-07-12T00:07:30;15.50;99.90
17387;DHT22;8811;52.398;9.728;2022-07-12T00:09:58;15.50;99.90
17387;DHT22;8811;52.398;9.728;2022-07-12T00:12:27;15.60;99.90
17387;DHT22;8811;52.398;9.728;2022-07-12T00:14:54;15.50;99.90
17387;DHT22;8811;52.398;9.728;2022-07-12T00:17:22;15.60;99.90
17387;DHT22;8811;52.398;9.728;2022-07-12T00:19:49;15.60;99.90
17387;DHT22;8811;52.398;9.728;2022-07-12T00:22:16;15.60;99.90
17387;DHT22;8811;52.398;9.728;2022-07-12T00:24:45;15.60;99.90
17387;DHT22;8811;52.398;9.728;2022-07-12T00:27:12;15.70;99.90
17387;DHT22;8811;52.398;9.728;2022-07-12T00:29:41;15.70;99.90
17387;DHT22;8811;52.398;9.728;2022-07-12T00:32:09;15.70;99.90
17387;DHT22;8811;52.398;9.728;2022-07-12T00:34:37;15.80;99.90
17387;DHT22;8811;52.398;9.728;2022-07-12T00:37:04;15.80;99.90
17387;DHT22;8811;52.398;9.728;2022-07-12T00:39:32;15.80;99.90
17387;DHT22;8811;52.398;9.728;2022-07-12T00:42:00;15.80;99.90
17387;DHT22;8811;52.398;9.728;2022-07-12T00:44:28;15.90;99.90
17387;DHT22;8811;52.398;9.728;2022-07-12T00:47:02;15.90;99.90
17387;DHT22;8811;52.398;9.728;2022-07-12T00:49:30;15.90;99.90
17387;DHT22;8811;52.398;9.728;2022-07-12T00:51:58;15.90;99.90
17387;DHT22;8811;52.398;9.728;2022-07-12T00:54:25;16.00;99.90
17387;DHT22;8811;52.398;9.728;2022-07-12T00:56:54;16.00;99.90
17387;DHT22;8811;52.398;9.728;2022-07-12T00:59:21;16.00;99.90
17387;DHT22;8811;52.398;9.728;2022-07-12T01:01:48;16.00;99.90
17387;DHT22;8811;52.398;9.728;2022-07-12T01:04:17;16.00;99.90
17387;DHT22;8811;52.398;9.728;2022-07-12T01:06:45;16.00;99.90
17387;DHT22;8811;52.398;9.728;2022-07-12T01:09:12;16.00;99.90
17387;DHT22;8811;52.398;9.728;2022-07-12T01:11:40;16.00;99.90
17387;DHT22;8811;52.398;9.728;2022-07-12T01:14:08;16.00;99.90
17387;DHT22;8811;52.398;9.728;2022-07-12T01:16:37;16.10;99.90
17387;DHT22;8811;52.398;9.728;2022-07-12T01:19:05;16.10;99.90
17387;DHT22;8811;52.398;9.728;2022-07-12T01:21:37;16.10;99.90
17387;DHT22;8811;52.398;9.728;2022-07-12T01:24:07;16.10;99.90
17387;DHT22;8811;52.398;9.728;2022-07-12T01:26:36;16.10;99.90
17387;DHT22;8811;52.398;9.728;2022-07-12T01:29:05;16.10;99.90
17387;DHT22;8811;52.398;9.728;2022-07-12T01:31:34;16.10;99.90
17387;DHT22;8811;52.398;9.728;2022-07-12T01:34:02;16.10;99.90
17387;DHT22;8811;52.398;9.728;2022-07-12T01:36:30;16.10;99.90
17387;DHT22;8811;52.398;9.728;2022-07-12T01:38:57;16.10;99.90
17387;DHT22;8811;52.398;9.728;2022-07-12T01:41:26;16.10;99.90
17387;DHT22;8811;52.398;9.728;2022-07-12T01:43:54;16.10;99.90
17387;DHT22;8811;52.398;9.728;2022-07-12T01:46:22;16.10;99.90
17387;DHT22;8811;52.398;9.728;2022-07-12T01:48:49;16.10;99.90
17387;DHT22;8811;52.398;9.728;2022-07-12T01:51:17;16.10;99.90
17387;DHT22;8811;52.398;9.728;2022-07-12T01:53:44;16.10;99.90
17387;DHT22;8811;52.398;9.728;2022-07-12T01:56:12;16.10;99.90
17387;DHT22;8811;52.398;9.728;2022-07-12T01:58:41;16.10;99.90
17387;DHT22;8811;52.398;9.728;2022-07-12T02:01:10;16.10;99.90
17387;DHT22;8811;52.398;9.728;2022-07-12T02:03:38;16.10;99.90
17387;DHT22;8811;52.398;9.728;2022-07-12T02:06:05;16.10;99.90
17387;DHT22;8811;52.398;9.728;2022-07-12T02:08:33;16.10;99.90
17387;DHT22;8811;52.398;9.728;2022-07-12T02:11:00;16.00;99.90
17387;DHT22;8811;52.398;9.728;2022-07-12T02:13:27;16.10;99.90
17387;DHT22;8811;52.398;9.728;2022-07-12T02:15:56;16.10;99.90
17387;DHT22;8811;52.398;9.728;2022-07-12T02:18:24;16.10;99.90
17387;DHT22;8811;52.398;9.728;2022-07-12T02:20:51;16.10;99.90
17387;DHT22;8811;52.398;9.728;2022-07-12T02:23:19;16.10;99.90
17387;DHT22;8811;52.398;9.728;2022-07-12T02:25:46;16.10;99.90
17387;DHT22;8811;52.398;9.728;2022-07-12T02:28:13;16.10;99.90
17387;DHT22;8811;52.398;9.728;2022-07-12T02:30:41;20.20;99.90
17387;DHT22;8811;52.398;9.728;2022-07-12T02:33:10;16.20;99.90
17387;DHT22;8811;52.398;9.728;2022-07-12T02:35:37;16.20;99.90
17387;DHT22;8811;52.398;9.728;2022-07-12T02:38:05;16.20;99.90
17387;DHT22;8811;52.398;9.728;2022-07-12T02:40:32;16.20;99.90
17387;DHT22;8811;52.398;9.728;2022-07-12T02:43:17;16.20;99.90
17387;DHT22;8811;52.398;9.728;2022-07-12T02:45:44;16.10;99.90
17387;DHT22;8811;52.398;9.728;2022-07-12T02:48:13;16.10;99.90
17387;DHT22;8811;52.398;9.728;2022-07-12T02:50:41;16.10;99.90
17387;DHT22;8811;52.398;9.728;2022-07-12T02:53:09;16.10;99.90
17387;DHT22;8811;52.398;9.728;2022-07-12T02:55:37;16.20;99.90
17387;DHT22;8811;52.398;9.728;2022-07-12T02:58:05;16.10;99.90
17387;DHT22;8811;52.398;9.728;2022-07-12T03:00:33;16.10;99.90
17387;DHT22;8811;52.398;9.728;2022-07-12T03:03:01;16.10;99.90
17387;DHT22;8811;52.398;9.728;2022-07-12T03:05:30;16.10;99.90
17387;DHT22;8811;52.398;9.728;2022-07-12T03:07:57;16.10;99.90
17387;DHT22;8811;52.398;9.728;2022-07-12T03:10:24;16.10;99.90
17387;DHT22;8811;52.398;9.728;2022-07-12T03:12:52;16.10;99.90
17387;DHT22;8811;52.398;9.728;2022-07-12T03:15:19;16.20;99.90
17387;DHT22;8811;52.398;9.728;2022-07-12T03:17:47;16.20;99.90
17387;DHT22;8811;52.398;9.728;2022-07-12T03:20:14;16.20;99.90
17387;DHT22;8811;52.398;9.728;2022-07-12T03:22:44;16.20;99.90
17387;DHT22;8811;52.398;9.728;2022-07-12T03:25:14;16.20;99.90
17387;DHT22;8811;52.398;9.728;2022-07-12T03:27:42;16.20;99.90
17387;DHT22;8811;52.398;9.728;2022-07-12T03:30:10;16.20;99.90
17387;DHT22;8811;52.398;9.728;2022-07-12T03:32:38;16.20;99.90
17387;DHT22;8811;52.398;9.728;2022-07-12T03:35:06;16.20;99.90
17387;DHT22;8811;52.398;9.728;2022-07-12T03:37:43;16.20;99.90
17387;DHT22;8811;52.398;9.728;2022-07-12T03:40:12;16.20;99.90
17387;DHT22;8811;52.398;9.728;2022-07-12T03:42:40;16.20;99.90
17387;DHT22;8811;52.398;9.728;2022-07-12T03:45:09;16.20;99.90
17387;DHT22;8811;52.398;9.728;2022-07-12T03:47:37;16.20;99.90
17387;DHT22;8811;52.398;9.728;2022-07-12T03:50:05;16.20;99.90
17387;DHT22;8811;52.398;9.728;2022-07-12T03:52:33;16.20;99.90
17387;DHT22;8811;52.398;9.728;2022-07-12T03:55:03;16.20;99.90
17387;DHT22;8811;52.398;9.728;2022-07-12T03:57:31;16.20;99.90
17387;DHT22;8811;52.398;9.728;2022-07-12T03:59:58;16.20;99.90
17387;DHT22;8811;52.398;9.728;2022-07-12T04:02:26;17.40;99.90
17387;DHT22;8811;52.398;9.728;2022-07-12T04:04:53;16.20;99.90
17387;DHT22;8811;52.398;9.728;2022-07-12T04:07:21;16.30;99.90
17387;DHT22;8811;52.398;9.728;2022-07-12T04:09:48;16.30;99.90
17387;DHT22;8811;52.398;9.728;2022-07-12T04:12:17;16.30;99.90
17387;DHT22;8811;52.398;9.728;2022-07-12T04:14:44;16.40;99.90
17387;DHT22;8811;52.398;9.728;2022-07-12T04:17:12;16.40;99.90
17387;DHT22;8811;52.398;9.728;2022-07-12T04:19:39;16.40;99.90
17387;DHT22;8811;52.398;9.728;2022-07-12T04:22:07;16.50;99.90
17387;DHT22;8811;52.398;9.728;2022-07-12T04:24:34;16.50;99.90
17387;DHT22;8811;52.398;9.728;2022-07-12T04:27:02;16.50;99.90
17387;DHT22;8811;52.398;9.728;2022-07-12T04:29:30;16.50;99.90
17387;DHT22;8811;52.398;9.728;2022-07-12T04:31:58;16.60;99.90
17387;DHT22;8811;52.398;9.728;2022-07-12T04:34:25;16.60;99.90
17387;DHT22;8811;52.398;9.728;2022-07-12T04:36:53;16.60;99.90
17387;DHT22;8811;52.398;9.728;2022-07-12T04:39:20;16.70;99.90
17387;DHT22;8811;52.398;9.728;2022-07-12T04:41:48;16.70;99.90
17387;DHT22;8811;52.398;9.728;2022-07-12T04:44:16;16.70;99.90
17387;DHT22;8811;52.398;9.728;2022-07-12T04:46:44;16.80;99.90
17387;DHT22;8811;52.398;9.728;2022-07-12T04:49:12;16.70;99.90
17387;DHT22;8811;52.398;9.728;2022-07-12T04:51:39;16.80;99.90
17387;DHT22;8811;52.398;9.728;2022-07-12T04:54:07;16.80;99.90
17387;DHT22;8811;52.398;9.728;2022-07-12T04:56:34;16.80;99.90
17387;DHT22;8811;52.398;9.728;2022-07-12T04:59:02;16.90;99.90
17387;DHT22;8811;52.398;9.728;2022-07-12T05:01:30;16.90;99.90
17387;DHT22;8811;52.398;9.728;2022-07-12T05:03:59;17.00;99.90
17387;DHT22;8811;52.398;9.728;2022-07-12T05:06:27;17.00;99.90
17387;DHT22;8811;52.398;9.728;2022-07-12T05:08:54;17.00;99.90
17387;DHT22;8811;52.398;9.728;2022-07-12T05:11:22;17.00;99.90
17387;DHT22;8811;52.398;9.728;2022-07-12T05:13:49;17.10;99.90
17387;DHT22;8811;52.398;9.728;2022-07-12T05:16:16;17.10;99.90
17387;DHT22;8811;52.398;9.728;2022-07-12T05:18:44;17.10;99.90
17387;DHT22;8811;52.398;9.728;2022-07-12T05:21:13;17.10;99.90
17387;DHT22;8811;52.398;9.728;2022-07-12T05:23:42;17.10;99.90
17387;DHT22;8811;52.398;9.728;2022-07-12T05:26:10;17.10;99.90
17387;DHT22;8811;52.398;9.728;2022-07-12T05:28:39;17.20;99.90
17387;DHT22;8811;52.398;9.728;2022-07-12T05:31:09;17.20;99.90
17387;DHT22;8811;52.398;9.728;2022-07-12T05:33:37;17.30;99.90
17387;DHT22;8811;52.398;9.728;2022-07-12T05:36:04;17.30;99.90
17387;DHT22;8811;52.398;9.728;2022-07-12T05:38:34;17.30;99.90
17387;DHT22;8811;52.398;9.728;2022-07-12T05:41:02;17.40;99.90
17387;DHT22;8811;52.398;9.728;2022-07-12T05:43:30;17.50;99.90
17387;DHT22;8811;52.398;9.728;2022-07-12T05:45:57;17.50;99.90
17387;DHT22;8811;52.398;9.728;2022-07-12T05:48:25;17.50;99.90
17387;DHT22;8811;52.398;9.728;2022-07-12T05:50:53;17.60;99.90
17387;DHT22;8811;52.398;9.728;2022-07-12T05:53:21;17.60;99.90
17387;DHT22;8811;52.398;9.728;2022-07-12T05:55:50;17.60;99.90
17387;DHT22;8811;52.398;9.728;2022-07-12T05:58:19;17.70;99.90
17387;DHT22;8811;52.398;9.728;2022-07-12T06:00:47;17.70;99.90
17387;DHT22;8811;52.398;9.728;2022-07-12T06:03:16;17.90;99.90
17387;DHT22;8811;52.398;9.728;2022-07-12T06:05:43;18.00;99.90
17387;DHT22;8811;52.398;9.728;2022-07-12T06:08:10;18.10;99.90
17387;DHT22;8811;52.398;9.728;2022-07-12T06:10:38;18.20;99.90
17387;DHT22;8811;52.398;9.728;2022-07-12T06:13:07;18.30;99.90
17387;DHT22;8811;52.398;9.728;2022-07-12T06:15:35;18.30;99.90
17387;DHT22;8811;52.398;9.728;2022-07-12T06:18:03;18.30;99.90
17387;DHT22;8811;52.398;9.728;2022-07-12T06:20:30;18.40;99.90
17387;DHT22;8811;52.398;9.728;2022-07-12T06:22:58;18.40;99.90
17387;DHT22;8811;52.398;9.728;2022-07-12T06:25:26;18.50;99.90
17387;DHT22;8811;52.398;9.728;2022-07-12T06:27:53;18.70;99.90
17387;DHT22;8811;52.398;9.728;2022-07-12T06:30:22;18.80;99.90
17387;DHT22;8811;52.398;9.728;2022-07-12T06:32:50;18.90;99.90
17387;DHT22;8811;52.398;9.728;2022-07-12T06:35:17;19.00;99.90
17387;DHT22;8811;52.398;9.728;2022-07-12T06:37:45;19.10;99.90
17387;DHT22;8811;52.398;9.728;2022-07-12T06:40:12;19.10;99.90
17387;DHT22;8811;52.398;9.728;2022-07-12T06:42:43;19.10;99.90
17387;DHT22;8811;52.398;9.728;2022-07-12T06:45:11;19.20;99.90
17387;DHT22;8811;52.398;9.728;2022-07-12T06:47:40;19.20;99.90
17387;DHT22;8811;52.398;9.728;2022-07-12T06:50:08;19.10;99.90
17387;DHT22;8811;52.398;9.728;2022-07-12T06:52:35;19.10;99.90
17387;DHT22;8811;52.398;9.728;2022-07-12T06:55:03;19.10;99.90
17387;DHT22;8811;52.398;9.728;2022-07-12T06:57:31;19.10;99.90
17387;DHT22;8811;52.398;9.728;2022-07-12T06:59:59;19.10;99.90
17387;DHT22;8811;52.398;9.728;2022-07-12T07:02:27;19.20;99.90
17387;DHT22;8811;52.398;9.728;2022-07-12T07:04:57;19.10;99.90
17387;DHT22;8811;52.398;9.728;2022-07-12T07:07:25;19.10;99.90
17387;DHT22;8811;52.398;9.728;2022-07-12T07:09:52;19.20;99.90
17387;DHT22;8811;52.398;9.728;2022-07-12T07:12:20;19.20;99.90
17387;DHT22;8811;52.398;9.728;2022-07-12T07:14:47;19.30;99.90
17387;DHT22;8811;52.398;9.728;2022-07-12T07:17:15;19.50;99.90
17387;DHT22;8811;52.398;9.728;2022-07-12T07:19:44;19.60;99.90
17387;DHT22;8811;52.398;9.728;2022-07-12T07:22:13;19.90;99.90
17387;DHT22;8811;52.398;9.728;2022-07-12T07:24:41;20.00;99.90
17387;DHT22;8811;52.398;9.728;2022-07-12T07:27:09;20.20;99.90
17387;DHT22;8811;52.398;9.728;2022-07-12T07:29:36;20.30;99.90
17387;DHT22;8811;52.398;9.728;2022-07-12T07:32:21;20.50;99.90
17387;DHT22;8811;52.398;9.728;2022-07-12T07:34:48;20.60;99.90
17387;DHT22;8811;52.398;9.728;2022-07-12T07:37:17;20.60;99.90
17387;DHT22;8811;52.398;9.728;2022-07-12T07:39:45;20.50;99.90
17387;DHT22;8811;52.398;9.728;2022-07-12T07:42:12;20.50;99.90
17387;DHT22;8811;52.398;9.728;2022-07-12T07:44:40;20.40;99.90
17387;DHT22;8811;52.398;9.728;2022-07-12T07:47:07;20.50;99.90
17387;DHT22;8811;52.398;9.728;2022-07-12T07:49:34;20.80;99.90
17387;DHT22;8811;52.398;9.728;2022-07-12T07:52:02;21.00;99.90
17387;DHT22;8811;52.398;9.728;2022-07-12T07:54:31;21.10;99.90
17387;DHT22;8811;52.398;9.728;2022-07-12T07:56:59;20.90;99.90
17387;DHT22;8811;52.398;9.728;2022-07-12T07:59:26;20.70;99.90
17387;DHT22;8811;52.398;9.728;2022-07-12T08:01:54;20.80;99.90
17387;DHT22;8811;52.398;9.728;2022-07-12T08:04:22;20.90;99.90
17387;DHT22;8811;52.398;9.728;2022-07-12T08:06:49;21.10;99.90
17387;DHT22;8811;52.398;9.728;2022-07-12T08:09:17;21.20;99.90
17387;DHT22;8811;52.398;9.728;2022-07-12T08:11:46;21.10;99.90
17387;DHT22;8811;52.398;9.728;2022-07-12T08:14:13;21.20;99.90
17387;DHT22;8811;52.398;9.728;2022-07-12T08:16:43;21.20;99.90
17387;DHT22;8811;52.398;9.728;2022-07-12T08:19:16;21.00;99.90
17387;DHT22;8811;52.398;9.728;2022-07-12T08:21:49;21.20;99.90
17387;DHT22;8811;52.398;9.728;2022-07-12T08:24:20;21.40;99.90
17387;DHT22;8811;52.398;9.728;2022-07-12T08:26:53;21.50;99.90
17387;DHT22;8811;52.398;9.728;2022-07-12T08:29:27;21.70;99.90
17387;DHT22;8811;52.398;9.728;2022-07-12T08:31:57;21.90;99.90
17387;DHT22;8811;52.398;9.728;2022-07-12T08:34:34;22.00;99.90
17387;DHT22;8811;52.398;9.728;2022-07-12T08:37:02;22.20;99.90
17387;DHT22;8811;52.398;9.728;2022-07-12T08:39:31;22.50;99.90
17387;DHT22;8811;52.398;9.728;2022-07-12T08:42:15;22.60;99.90
17387;DHT22;8811;52.398;9.728;2022-07-12T08:44:43;22.60;99.90
17387;DHT22;8811;52.398;9.728;2022-07-12T08:47:12;22.70;99.90
17387;DHT22;8811;52.398;9.728;2022-07-12T08:50:16;23.00;99.90
17387;DHT22;8811;52.398;9.728;2022-07-12T08:52:50;23.30;99.90
17387;DHT22;8811;52.398;9.728;2022-07-12T08:55:22;23.40;99.90
17387;DHT22;8811;52.398;9.728;2022-07-12T08:58:03;23.30;99.90
17387;DHT22;8811;52.398;9.728;2022-07-12T09:00:32;23.70;99.90
17387;DHT22;8811;52.398;9.728;2022-07-12T09:03:03;23.90;99.90
17387;DHT22;8811;52.398;9.728;2022-07-12T09:05:34;24.20;99.90
17387;DHT22;8811;52.398;9.728;2022-07-12T09:08:04;24.50;99.90
17387;DHT22;8811;52.398;9.728;2022-07-12T09:10:51;24.70;99.90
17387;DHT22;8811;52.398;9.728;2022-07-12T09:13:48;24.80;99.90
17387;DHT22;8811;52.398;9.728;2022-07-12T09:16:20;24.90;99.90
17387;DHT22;8811;52.398;9.728;2022-07-12T09:19:12;25.20;99.90
17387;DHT22;8811;52.398;9.728;2022-07-12T09:21:46;25.30;99.90
17387;DHT22;8811;52.398;9.728;2022-07-12T09:24:17;25.50;99.90
17387;DHT22;8811;52.398;9.728;2022-07-12T09:26:52;25.60;99.90
17387;DHT22;8811;52.398;9.728;2022-07-12T09:29:25;25.60;99.90
17387;DHT22;8811;52.398;9.728;2022-07-12T09:31:55;25.70;99.90
17387;DHT22;8811;52.398;9.728;2022-07-12T09:34:43;25.80;99.90
17387;DHT22;8811;52.398;9.728;2022-07-12T09:37:39;25.80;99.90
17387;DHT22;8811;52.398;9.728;2022-07-12T09:40:10;25.80;99.90
17387;DHT22;8811;52.398;9.728;2022-07-12T09:42:47;26.10;99.90
17387;DHT22;8811;52.398;9.728;2022-07-12T09:45:22;26.30;99.90
17387;DHT22;8811;52.398;9.728;2022-07-12T09:47:53;26.60;99.90
17387;DHT22;8811;52.398;9.728;2022-07-12T09:50:24;26.80;99.90
17387;DHT22;8811;52.398;9.728;2022-07-12T09:52:58;27.20;99.90
17387;DHT22;8811;52.398;9.728;2022-07-12T09:55:30;27.40;98.30
17387;DHT22;8811;52.398;9.728;2022-07-12T09:58:01;27.40;99.50
17387;DHT22;8811;52.398;9.728;2022-07-12T10:00:58;27.40;98.70
17387;DHT22;8811;52.398;9.728;2022-07-12T10:03:30;27.50;96.00
17387;DHT22;8811;52.398;9.728;2022-07-12T10:06:16;27.50;98.00
17387;DHT22;8811;52.398;9.728;2022-07-12T10:08:48;27.50;98.40
17387;DHT22;8811;52.398;9.728;2022-07-12T10:11:21;27.70;98.00
17387;DHT22;8811;52.398;9.728;2022-07-12T10:14:09;28.00;97.50
17387;DHT22;8811;52.398;9.728;2022-07-12T10:16:51;28.30;96.10
17387;DHT22;8811;52.398;9.728;2022-07-12T10:19:27;28.40;94.90
17387;DHT22;8811;52.398;9.728;2022-07-12T10:21:57;28.50;94.80
17387;DHT22;8811;52.398;9.728;2022-07-12T10:27:37;28.80;94.20
17387;DHT22;8811;52.398;9.728;2022-07-12T10:30:23;29.20;93.60
17387;DHT22;8811;52.398;9.728;2022-07-12T10:32:53;29.70;93.10
17387;DHT22;8811;52.398;9.728;2022-07-12T10:35:25;30.10;91.60
17387;DHT22;8811;52.398;9.728;2022-07-12T10:41:15;30.80;89.10
17387;DHT22;8811;52.398;9.728;2022-07-12T10:44:03;31.30;87.60
17387;DHT22;8811;52.398;9.728;2022-07-12T10:46:36;31.10;85.60
17387;DHT22;8811;52.398;9.728;2022-07-12T10:49:26;30.90;82.40
17387;DHT22;8811;52.398;9.728;2022-07-12T10:52:25;31.80;83.40
17387;DHT22;8811;52.398;9.728;2022-07-12T10:55:18;32.90;81.70
17387;DHT22;8811;52.398;9.728;2022-07-12T10:57:49;34.00;76.80
17387;DHT22;8811;52.398;9.728;2022-07-12T11:00:18;34.40;73.20
17387;DHT22;8811;52.398;9.728;2022-07-12T11:02:49;34.40;72.30
17387;DHT22;8811;52.398;9.728;2022-07-12T11:05:29;34.00;70.80
17387;DHT22;8811;52.398;9.728;2022-07-12T11:07:59;33.50;70.70
17387;DHT22;8811;52.398;9.728;2022-07-12T11:10:32;32.70;71.70
17387;DHT22;8811;52.398;9.728;2022-07-12T11:13:00;32.10;72.50
17387;DHT22;8811;52.398;9.728;2022-07-12T11:15:30;31.80;74.20
17387;DHT22;8811;52.398;9.728;2022-07-12T11:17:57;31.70;76.20
17387;DHT22;8811;52.398;9.728;2022-07-12T11:20:27;32.30;77.80
17387;DHT22;8811;52.398;9.728;2022-07-12T11:22:55;32.50;72.60
17387;DHT22;8811;52.398;9.728;2022-07-12T11:25:25;32.80;74.40
17387;DHT22;8811;52.398;9.728;2022-07-12T11:27:53;32.90;71.30
17387;DHT22;8811;52.398;9.728;2022-07-12T11:30:20;33.10;69.00
17387;DHT22;8811;52.398;9.728;2022-07-12T11:32:50;33.30;70.20
17387;DHT22;8811;52.398;9.728;2022-07-12T11:35:21;33.30;71.90
17387;DHT22;8811;52.398;9.728;2022-07-12T11:37:54;33.40;72.60
17387;DHT22;8811;52.398;9.728;2022-07-12T11:40:27;33.60;69.90
17387;DHT22;8811;52.398;9.728;2022-07-12T11:42:56;34.00;68.90
17387;DHT22;8811;52.398;9.728;2022-07-12T11:45:27;34.20;65.70
17387;DHT22;8811;52.398;9.728;2022-07-12T11:48:00;33.90;67.50
17387;DHT22;8811;52.398;9.728;2022-07-12T11:50:32;34.00;66.20
17387;DHT22;8811;52.398;9.728;2022-07-12T11:53:11;34.40;63.50
17387;DHT22;8811;52.398;9.728;2022-07-12T11:55:47;34.90;64.40
17387;DHT22;8811;52.398;9.728;2022-07-12T11:58:16;35.50;64.10
17387;DHT22;8811;52.398;9.728;2022-07-12T12:00:51;36.20;60.30
17387;DHT22;8811;52.398;9.728;2022-07-12T12:03:23;36.90;61.60
17387;DHT22;8811;52.398;9.728;2022-07-12T12:05:51;37.90;59.60
17387;DHT22;8811;52.398;9.728;2022-07-12T12:08:32;38.90;57.10
17387;DHT22;8811;52.398;9.728;2022-07-12T12:11:00;39.70;55.60
17387;DHT22;8811;52.398;9.728;2022-07-12T12:13:29;40.30;54.60
17387;DHT22;8811;52.398;9.728;2022-07-12T12:16:01;40.60;51.10
17387;DHT22;8811;52.398;9.728;2022-07-12T12:18:33;41.10;50.00
17387;DHT22;8811;52.398;9.728;2022-07-12T12:21:05;41.80;49.40
17387;DHT22;8811;52.398;9.728;2022-07-12T12:24:08;42.60;52.10
17387;DHT22;8811;52.398;9.728;2022-07-12T12:26:38;42.60;48.10
17387;DHT22;8811;52.398;9.728;2022-07-12T12:29:10;43.20;49.50
17387;DHT22;8811;52.398;9.728;2022-07-12T12:31:39;44.20;47.80
17387;DHT22;8811;52.398;9.728;2022-07-12T12:34:28;45.00;44.70
17387;DHT22;8811;52.398;9.728;2022-07-12T12:37:08;45.90;42.00
17387;DHT22;8811;52.398;9.728;2022-07-12T12:39:48;46.30;40.50
17387;DHT22;8811;52.398;9.728;2022-07-12T12:42:24;46.70;41.10
17387;DHT22;8811;52.398;9.728;2022-07-12T12:44:59;47.00;42.10
17387;DHT22;8811;52.398;9.728;2022-07-12T12:47:52;47.20;41.10
17387;DHT22;8811;52.398;9.728;2022-07-12T12:50:35;47.60;40.80
17387;DHT22;8811;52.398;9.728;2022-07-12T12:53:18;47.60;40.70
17387;DHT22;8811;52.398;9.728;2022-07-12T12:56:00;48.00;39.80
17387;DHT22;8811;52.398;9.728;2022-07-12T12:58:48;48.20;39.30
17387;DHT22;8811;52.398;9.728;2022-07-12T13:01:23;47.70;38.40
17387;DHT22;8811;52.398;9.728;2022-07-12T13:04:03;48.00;38.60
17387;DHT22;8811;52.398;9.728;2022-07-12T13:06:42;47.10;39.50
17387;DHT22;8811;52.398;9.728;2022-07-12T13:09:16;45.30;40.50
17387;DHT22;8811;52.398;9.728;2022-07-12T13:11:52;45.20;40.30
17387;DHT22;8811;52.398;9.728;2022-07-12T13:14:23;46.00;39.10
17387;DHT22;8811;52.398;9.728;2022-07-12T13:16:55;46.50;40.40
17387;DHT22;8811;52.398;9.728;2022-07-12T13:19:30;45.80;40.20
17387;DHT22;8811;52.398;9.728;2022-07-12T13:22:10;45.90;39.00
17387;DHT22;8811;52.398;9.728;2022-07-12T13:24:39;46.60;38.20
17387;DHT22;8811;52.398;9.728;2022-07-12T13:27:08;47.30;36.80
17387;DHT22;8811;52.398;9.728;2022-07-12T13:29:35;47.60;37.30
17387;DHT22;8811;52.398;9.728;2022-07-12T13:32:09;48.30;37.00
17387;DHT22;8811;52.398;9.728;2022-07-12T13:34:38;48.40;34.90
17387;DHT22;8811;52.398;9.728;2022-07-12T13:37:08;49.00;33.90
17387;DHT22;8811;52.398;9.728;2022-07-12T13:39:36;48.80;35.60
17387;DHT22;8811;52.398;9.728;2022-07-12T13:42:22;49.10;35.20
17387;DHT22;8811;52.398;9.728;2022-07-12T13:44:57;48.40;35.90
17387;DHT22;8811;52.398;9.728;2022-07-12T13:47:29;48.80;35.40
17387;DHT22;8811;52.398;9.728;2022-07-12T13:50:01;49.20;34.60
17387;DHT22;8811;52.398;9.728;2022-07-12T13:52:42;49.50;32.70
17387;DHT22;8811;52.398;9.728;2022-07-12T13:55:16;49.50;34.20
17387;DHT22;8811;52.398;9.728;2022-07-12T13:57:56;49.70;32.50
17387;DHT22;8811;52.398;9.728;2022-07-12T14:00:27;49.20;33.00
17387;DHT22;8811;52.398;9.728;2022-07-12T14:02:58;48.70;35.50
17387;DHT22;8811;52.398;9.728;2022-07-12T14:05:25;46.80;36.30
17387;DHT22;8811;52.398;9.728;2022-07-12T14:07:57;43.90;38.10
17387;DHT22;8811;52.398;9.728;2022-07-12T14:10:39;41.00;41.20
17387;DHT22;8811;52.398;9.728;2022-07-12T14:13:09;38.40;43.60
17387;DHT22;8811;52.398;9.728;2022-07-12T14:15:43;36.40;46.20
17387;DHT22;8811;52.398;9.728;2022-07-12T14:18:19;35.40;47.50
17387;DHT22;8811;52.398;9.728;2022-07-12T14:20:47;34.20;50.30
17387;DHT22;8811;52.398;9.728;2022-07-12T14:23:17;33.60;51.40
17387;DHT22;8811;52.398;9.728;2022-07-12T14:25:50;33.20;50.90
17387;DHT22;8811;52.398;9.728;2022-07-12T14:28:20;33.10;50.40
17387;DHT22;8811;52.398;9.728;2022-07-12T14:30:50;32.90;51.70
17387;DHT22;8811;52.398;9.728;2022-07-12T14:33:33;32.40;52.10
17387;DHT22;8811;52.398;9.728;2022-07-12T14:36:02;32.00;52.80
17387;DHT22;8811;52.398;9.728;2022-07-12T14:38:29;31.80;52.90
17387;DHT22;8811;52.398;9.728;2022-07-12T14:41:03;31.60;54.60
17387;DHT22;8811;52.398;9.728;2022-07-12T14:43:55;31.50;54.90
17387;DHT22;8811;52.398;9.728;2022-07-12T14:46:23;31.10;56.80
17387;DHT22;8811;52.398;9.728;2022-07-12T14:49:01;31.10;56.00
17387;DHT22;8811;52.398;9.728;2022-07-12T14:51:28;30.90;56.40
17387;DHT22;8811;52.398;9.728;2022-07-12T14:54:00;30.90;57.00
17387;DHT22;8811;52.398;9.728;2022-07-12T14:56:33;30.80;56.40
17387;DHT22;8811;52.398;9.728;2022-07-12T14:59:02;30.60;57.50
17387;DHT22;8811;52.398;9.728;2022-07-12T15:01:37;30.50;58.00
17387;DHT22;8811;52.398;9.728;2022-07-12T15:04:05;30.30;57.00
17387;DHT22;8811;52.398;9.728;2022-07-12T15:06:35;30.40;57.90
17387;DHT22;8811;52.398;9.728;2022-07-12T15:09:07;30.30;58.40
17387;DHT22;8811;52.398;9.728;2022-07-12T15:11:38;30.10;58.30
17387;DHT22;8811;52.398;9.728;2022-07-12T15:14:11;29.80;58.60
17387;DHT22;8811;52.398;9.728;2022-07-12T15:16:39;29.60;58.40
17387;DHT22;8811;52.398;9.728;2022-07-12T15:19:07;29.60;57.80
17387;DHT22;8811;52.398;9.728;2022-07-12T15:21:37;29.50;58.40
17387;DHT22;8811;52.398;9.728;2022-07-12T15:24:07;29.60;59.70
17387;DHT22;8811;52.398;9.728;2022-07-12T15:26:39;29.40;59.60
17387;DHT22;8811;52.398;9.728;2022-07-12T15:29:12;29.20;59.60
17387;DHT22;8811;52.398;9.728;2022-07-12T15:31:43;29.00;61.50
17387;DHT22;8811;52.398;9.728;2022-07-12T15:34:13;28.90;61.40
17387;DHT22;8811;52.398;9.728;2022-07-12T15:36:44;29.00;60.80
17387;DHT22;8811;52.398;9.728;2022-07-12T15:39:13;28.80;61.70
17387;DHT22;8811;52.398;9.728;2022-07-12T15:41:43;28.80;62.50
17387;DHT22;8811;52.398;9.728;2022-07-12T15:44:17;28.80;61.90
17387;DHT22;8811;52.398;9.728;2022-07-12T15:46:48;28.80;60.60
17387;DHT22;8811;52.398;9.728;2022-07-12T15:49:30;28.80;61.80
17387;DHT22;8811;52.398;9.728;2022-07-12T15:52:02;28.60;62.20
17387;DHT22;8811;52.398;9.728;2022-07-12T15:54:47;28.40;63.90
17387;DHT22;8811;52.398;9.728;2022-07-12T15:57:19;28.40;64.30
17387;DHT22;8811;52.398;9.728;2022-07-12T15:59:49;28.20;63.70
17387;DHT22;8811;52.398;9.728;2022-07-12T16:02:20;28.10;63.70
17387;DHT22;8811;52.398;9.728;2022-07-12T16:04:55;28.20;64.30
17387;DHT22;8811;52.398;9.728;2022-07-12T16:07:23;28.20;63.40
17387;DHT22;8811;52.398;9.728;2022-07-12T16:09:51;28.10;63.90
17387;DHT22;8811;52.398;9.728;2022-07-12T16:12:19;27.70;65.50
17387;DHT22;8811;52.398;9.728;2022-07-12T16:14:55;27.60;66.40